createdAt,value
2022-12-13T00:04:25.982Z,11.32
2022-12-13T00:06:55.217Z,12.10
2022-12-13T00:09:24.547Z,12.35
2022-12-13T00:11:54.766Z,12.55
2022-12-13T00:14:23.634Z,13.25
2022-12-13T00:16:53.984Z,13.05
2022-12-13T00:19:25.313Z,13.10
2022-12-13T00:21:54.428Z,12.68
2022-12-13T00:24:25.400Z,12.00
2022-12-13T00:26:56.612Z,11.93
2022-12-13T00:29:27.599Z,12.27
2022-12-13T00:32:00.871Z,13.18
2022-12-13T00:34:30.181Z,11.20
2022-12-13T00:37:00.376Z,13.15
2022-12-13T00:39:30.059Z,13.18
2022-12-13T00:41:58.968Z,12.98
2022-12-13T00:44:27.802Z,12.73
2022-12-13T00:46:58.082Z,12.02
2022-12-13T00:49:27.828Z,13.40
2022-12-13T00:51:56.618Z,12.23
2022-12-13T00:54:25.450Z,12.93
2022-12-13T00:56:56.340Z,13.13
2022-12-13T00:59:25.238Z,12.10
2022-12-13T01:01:54.224Z,11.93
2022-12-13T01:04:24.501Z,11.73
2022-12-13T01:06:54.598Z,13.20
2022-12-13T01:09:27.326Z,13.32
2022-12-13T01:11:59.220Z,11.77
2022-12-13T01:16:57.035Z,13.27
2022-12-13T01:19:29.190Z,13.35
2022-12-13T01:21:58.562Z,12.82
2022-12-13T01:24:29.099Z,12.75
2022-12-13T01:27:00.091Z,12.77
2022-12-13T01:29:29.520Z,12.90
2022-12-13T01:32:00.644Z,12.13
2022-12-13T01:34:30.939Z,12.18
2022-12-13T01:36:59.722Z,13.60
2022-12-13T01:39:31.000Z,17.33
2022-12-13T01:42:07.259Z,13.70
2022-12-13T01:45:03.300Z,13.80
2022-12-13T01:47:40.594Z,14.18
2022-12-13T01:50:13.805Z,15.02
2022-12-13T01:52:43.886Z,13.95
2022-12-13T01:55:13.699Z,14.43
2022-12-13T01:57:45.831Z,13.75
2022-12-13T02:00:16.658Z,14.13
2022-12-13T02:02:46.351Z,13.93
2022-12-13T02:05:23.717Z,13.88
2022-12-13T02:07:53.299Z,15.10
2022-12-13T02:10:22.366Z,14.50
2022-12-13T02:12:54.110Z,15.27
2022-12-13T02:15:23.676Z,14.18
2022-12-13T02:18:10.657Z,15.45
2022-12-13T02:21:03.645Z,16.30
2022-12-13T02:24:09.016Z,16.10
2022-12-13T02:27:04.693Z,16.13
2022-12-13T02:30:08.269Z,16.60
2022-12-13T02:32:48.927Z,15.75
2022-12-13T02:35:26.698Z,16.17
2022-12-13T02:38:06.072Z,15.30
2022-12-13T02:40:40.884Z,15.38
2022-12-13T02:43:14.195Z,13.80
2022-12-13T02:45:48.983Z,14.30
2022-12-13T02:48:24.832Z,13.93
2022-12-13T02:50:55.026Z,14.70
2022-12-13T02:53:25.753Z,15.40
2022-12-13T02:55:54.754Z,14.57
2022-12-13T02:58:29.275Z,13.88
2022-12-13T03:01:29.837Z,14.98
2022-12-13T03:04:08.765Z,14.25
2022-12-13T03:06:48.886Z,15.07
2022-12-13T03:09:33.169Z,14.95
2022-12-13T03:12:37.251Z,15.45
2022-12-13T03:15:17.862Z,15.55
2022-12-13T03:17:53.916Z,16.33
2022-12-13T03:20:27.930Z,20.90
2022-12-13T03:22:58.427Z,27.75
2022-12-13T03:25:33.162Z,16.90
2022-12-13T03:28:02.960Z,16.50
2022-12-13T03:30:33.054Z,16.92
2022-12-13T03:33:02.120Z,15.90
2022-12-13T03:35:34.208Z,15.05
2022-12-13T03:38:04.203Z,15.98
2022-12-13T03:40:34.174Z,15.10
2022-12-13T03:43:03.159Z,16.15
2022-12-13T03:45:31.956Z,14.70
2022-12-13T03:48:00.814Z,16.30
2022-12-13T03:50:31.130Z,16.02
2022-12-13T03:53:03.895Z,16.10
2022-12-13T03:55:32.737Z,15.70
2022-12-13T03:58:07.528Z,16.67
2022-12-13T04:00:39.743Z,15.90
2022-12-13T04:03:08.668Z,15.35
2022-12-13T04:05:38.902Z,16.67
2022-12-13T04:08:12.536Z,15.20
2022-12-13T04:10:50.976Z,15.70
2022-12-13T04:13:33.604Z,15.88
2022-12-13T04:16:03.406Z,17.30
2022-12-13T04:18:32.589Z,16.67
2022-12-13T04:21:05.275Z,17.30
2022-12-13T04:23:34.074Z,16.83
2022-12-13T04:26:05.262Z,18.27
2022-12-13T04:28:34.103Z,16.98
2022-12-13T04:31:02.996Z,17.75
2022-12-13T04:33:32.828Z,17.75
2022-12-13T04:36:01.956Z,17.52
2022-12-13T04:38:32.178Z,18.83
2022-12-13T04:41:08.891Z,17.48
2022-12-13T04:43:37.744Z,19.10
2022-12-13T04:46:08.946Z,17.77
2022-12-13T04:48:37.816Z,18.52
2022-12-13T04:51:07.152Z,18.35
2022-12-13T04:53:39.558Z,19.48
2022-12-13T04:56:09.088Z,18.40
2022-12-13T04:58:40.791Z,18.65
2022-12-13T05:01:11.182Z,18.98
2022-12-13T05:03:40.928Z,18.65
2022-12-13T05:06:27.028Z,18.23
2022-12-13T05:09:00.770Z,18.88
2022-12-13T05:11:35.794Z,19.42
2022-12-13T05:14:05.028Z,19.20
2022-12-13T05:16:36.188Z,18.42
2022-12-13T05:19:05.033Z,18.10
2022-12-13T05:21:35.119Z,17.02
2022-12-13T05:24:06.485Z,17.73
2022-12-13T05:26:35.252Z,17.27
2022-12-13T05:29:06.527Z,18.33
2022-12-13T05:31:36.039Z,17.45
2022-12-13T05:34:05.381Z,16.65
2022-12-13T05:36:34.342Z,18.98
2022-12-13T05:39:06.938Z,17.40
2022-12-13T05:41:56.789Z,15.93
2022-12-13T05:44:32.803Z,17.73
2022-12-13T05:47:02.988Z,17.08
2022-12-13T05:49:33.235Z,17.55
2022-12-13T05:52:02.061Z,16.63
2022-12-13T05:54:32.313Z,17.27
2022-12-13T05:57:03.275Z,19.08
2022-12-13T05:59:34.086Z,17.63
2022-12-13T06:02:05.326Z,18.83
2022-12-13T06:04:34.553Z,18.08
2022-12-13T06:07:05.975Z,17.27
2022-12-13T06:09:40.252Z,16.60
2022-12-13T06:12:30.823Z,16.65
2022-12-13T06:15:01.333Z,17.13
2022-12-13T06:17:49.569Z,17.63
2022-12-13T06:20:23.204Z,17.70
2022-12-13T06:22:52.970Z,17.20
2022-12-13T06:25:30.895Z,17.98
2022-12-13T06:28:01.496Z,17.90
2022-12-13T06:30:31.253Z,17.25
2022-12-13T06:33:02.713Z,17.52
2022-12-13T06:35:35.269Z,17.48
2022-12-13T06:38:11.936Z,17.92
2022-12-13T06:40:42.547Z,18.33
2022-12-13T06:43:11.440Z,17.27
2022-12-13T06:45:41.709Z,21.35
2022-12-13T06:48:16.300Z,19.10
2022-12-13T06:50:50.869Z,18.33
2022-12-13T06:53:22.156Z,18.73
2022-12-13T06:55:52.351Z,17.88
2022-12-13T06:58:21.147Z,18.63
2022-12-13T07:00:49.977Z,17.77
2022-12-13T07:03:20.982Z,18.17
2022-12-13T07:05:55.207Z,17.83
2022-12-13T07:08:27.223Z,18.58
2022-12-13T07:11:00.488Z,17.75
2022-12-13T07:13:32.687Z,17.85
2022-12-13T07:16:01.695Z,16.95
2022-12-13T07:18:30.560Z,18.08
2022-12-13T07:20:59.618Z,16.42
2022-12-13T07:23:28.432Z,17.23
2022-12-13T07:25:57.834Z,17.02
2022-12-13T07:28:28.018Z,16.52
2022-12-13T07:30:57.200Z,16.98
2022-12-13T07:33:29.755Z,17.38
2022-12-13T07:36:02.617Z,16.17
2022-12-13T07:38:31.435Z,16.33
2022-12-13T07:41:00.237Z,16.02
2022-12-13T07:43:33.334Z,15.95
2022-12-13T07:46:03.530Z,16.45
2022-12-13T07:48:33.378Z,16.02
2022-12-13T07:51:03.974Z,15.85
2022-12-13T07:53:33.461Z,16.88
2022-12-13T07:56:05.130Z,15.95
2022-12-13T07:58:35.523Z,15.68
2022-12-13T08:01:07.881Z,15.52
2022-12-13T08:03:37.387Z,16.33
2022-12-13T08:06:08.682Z,16.00
2022-12-13T08:08:38.571Z,16.80
2022-12-13T08:11:09.845Z,15.90
2022-12-13T08:13:40.932Z,15.93
2022-12-13T08:16:27.597Z,15.15
2022-12-13T08:19:03.283Z,15.30
2022-12-13T08:24:25.847Z,16.60
2022-12-13T08:26:57.471Z,15.63
2022-12-13T08:29:34.604Z,15.57
2022-12-13T08:32:05.444Z,16.02
2022-12-13T08:34:34.342Z,15.98
2022-12-13T08:37:04.610Z,15.32
2022-12-13T08:39:35.948Z,16.08
2022-12-13T08:42:17.212Z,14.85
2022-12-13T08:44:51.499Z,15.35
2022-12-13T08:47:25.510Z,14.93
2022-12-13T08:50:02.690Z,15.02
2022-12-13T08:52:40.436Z,16.70
2022-12-13T08:55:11.337Z,16.73
2022-12-13T08:57:40.731Z,15.60
2022-12-13T09:00:14.061Z,15.25
2022-12-13T09:02:42.974Z,14.30
2022-12-13T09:05:33.417Z,15.45
2022-12-13T09:08:23.708Z,13.88
2022-12-13T09:10:59.838Z,14.38
2022-12-13T09:13:32.329Z,15.02
2022-12-13T09:16:14.170Z,14.95
2022-12-13T09:18:54.707Z,14.45
2022-12-13T09:21:30.931Z,17.30
2022-12-13T09:24:02.181Z,15.68
2022-12-13T09:26:38.413Z,15.70
2022-12-13T09:29:10.584Z,15.23
2022-12-13T09:31:42.035Z,15.68
2022-12-13T09:34:11.413Z,15.23
2022-12-13T09:36:40.555Z,15.48
2022-12-13T09:39:11.846Z,16.40
2022-12-13T09:41:44.430Z,19.15
2022-12-13T09:44:32.968Z,18.27
2022-12-13T09:47:13.684Z,16.63
2022-12-13T09:49:52.644Z,16.00
2022-12-13T09:52:26.211Z,14.52
2022-12-13T09:55:06.577Z,14.55
2022-12-13T09:57:38.873Z,13.68
2022-12-13T10:00:13.734Z,14.85
2022-12-13T10:02:48.135Z,13.93
2022-12-13T10:05:22.701Z,14.80
2022-12-13T10:07:57.795Z,15.00
2022-12-13T10:10:27.335Z,15.60
2022-12-13T10:13:12.461Z,14.82
2022-12-13T10:15:46.629Z,15.43
2022-12-13T10:18:27.638Z,13.57
2022-12-13T10:20:57.493Z,16.42
2022-12-13T10:23:42.838Z,16.38
2022-12-13T10:26:24.613Z,16.95
2022-12-13T10:29:04.295Z,10.75
2022-12-13T10:31:43.514Z,10.55
2022-12-13T10:34:24.543Z,10.18
2022-12-13T10:36:53.828Z,11.70
2022-12-13T10:39:40.792Z,11.48
2022-12-13T10:42:22.947Z,8.93
2022-12-13T10:45:11.655Z,9.20
2022-12-13T10:47:43.002Z,8.57
2022-12-13T10:50:25.509Z,9.98
2022-12-13T10:52:55.690Z,8.13
2022-12-13T10:55:30.715Z,9.30
2022-12-13T10:58:01.772Z,8.90
2022-12-13T11:00:38.899Z,8.77
2022-12-13T11:03:08.987Z,8.65
2022-12-13T11:05:40.735Z,7.55
2022-12-13T11:10:45.753Z,6.85
2022-12-13T11:13:29.620Z,6.90
2022-12-13T11:15:58.631Z,6.97
2022-12-13T11:18:33.026Z,7.15
2022-12-13T11:21:07.841Z,7.13
2022-12-13T11:23:40.854Z,7.20
2022-12-13T11:26:12.414Z,7.72
2022-12-13T11:29:04.426Z,6.95
2022-12-13T11:34:18.436Z,6.63
2022-12-13T11:36:58.957Z,7.13
2022-12-13T11:39:33.096Z,7.50
2022-12-13T11:42:09.444Z,7.53
2022-12-13T11:44:48.044Z,6.95
2022-12-13T11:47:24.227Z,6.70
2022-12-13T11:49:53.879Z,6.80
2022-12-13T11:55:01.895Z,6.57
2022-12-13T11:57:44.102Z,6.68
2022-12-13T12:00:33.822Z,7.18
2022-12-13T12:03:19.684Z,7.82
2022-12-13T12:05:55.815Z,8.15
2022-12-13T12:08:34.388Z,7.45
2022-12-13T12:11:13.388Z,7.30
2022-12-13T12:13:50.872Z,8.13
2022-12-13T12:16:34.004Z,8.77
2022-12-13T12:19:03.273Z,8.23
2022-12-13T12:24:37.370Z,7.57
2022-12-13T12:27:24.022Z,8.90
2022-12-13T12:30:23.139Z,8.43
2022-12-13T12:33:02.803Z,8.85
2022-12-13T12:36:17.552Z,10.53
2022-12-13T12:39:13.922Z,9.13
2022-12-13T12:42:00.395Z,9.05
2022-12-13T12:44:42.116Z,9.45
2022-12-13T12:47:48.024Z,9.68
2022-12-13T12:50:35.520Z,8.48
2022-12-13T12:53:27.141Z,8.32
2022-12-13T12:56:21.495Z,8.00
2022-12-13T12:58:59.986Z,7.88
2022-12-13T13:01:43.897Z,7.80
2022-12-13T13:04:22.085Z,8.15
2022-12-13T13:07:01.930Z,8.60
2022-12-13T13:09:32.450Z,8.50
2022-12-13T13:12:28.875Z,8.20
2022-12-13T13:14:55.675Z,9.00
2022-12-13T13:17:54.514Z,8.70
2022-12-13T13:20:26.479Z,8.05
2022-12-13T13:23:38.762Z,8.07
2022-12-13T13:28:45.340Z,9.35
2022-12-13T13:31:16.094Z,8.70
2022-12-13T13:33:47.903Z,8.40
2022-12-13T13:36:47.713Z,8.10
2022-12-13T13:39:37.410Z,8.27
2022-12-13T13:42:18.920Z,8.43
2022-12-13T13:45:19.569Z,9.95
2022-12-13T13:48:15.380Z,10.05
2022-12-13T13:51:28.599Z,9.68
2022-12-13T13:54:42.098Z,10.50
2022-12-13T13:58:11.448Z,9.65
2022-12-13T14:01:17.201Z,9.57
2022-12-13T14:04:38.232Z,9.98
2022-12-13T14:07:54.995Z,9.25
2022-12-13T14:10:38.294Z,10.02
2022-12-13T14:13:45.405Z,10.25
2022-12-13T14:16:47.005Z,10.25
2022-12-13T14:19:31.291Z,10.05
2022-12-13T14:22:20.577Z,10.68
2022-12-13T14:24:57.517Z,11.02
2022-12-13T14:27:42.468Z,10.43
2022-12-13T14:30:26.987Z,10.52
2022-12-13T14:32:59.190Z,10.77
2022-12-13T14:35:31.770Z,10.52
2022-12-13T14:38:02.964Z,11.02
2022-12-13T14:40:33.766Z,10.77
2022-12-13T14:43:03.438Z,11.10
2022-12-13T14:45:36.628Z,11.05
2022-12-13T14:48:12.685Z,10.68
2022-12-13T14:50:45.740Z,10.52
2022-12-13T14:53:25.608Z,11.15
2022-12-13T14:56:27.588Z,11.57
2022-12-13T14:58:59.935Z,11.27
2022-12-13T15:01:31.813Z,10.98
2022-12-13T15:04:20.694Z,11.77
2022-12-13T15:06:57.005Z,11.20
2022-12-13T15:09:29.186Z,11.50
2022-12-13T15:12:14.909Z,11.52
2022-12-13T15:14:51.729Z,11.85
2022-12-13T15:17:33.211Z,12.23
2022-12-13T15:20:25.537Z,11.30
2022-12-13T15:23:06.125Z,11.35
2022-12-13T15:25:44.041Z,11.75
2022-12-13T15:30:51.156Z,10.60
2022-12-13T15:33:28.862Z,11.15
2022-12-13T15:36:08.807Z,12.95
2022-12-13T15:38:45.137Z,12.13
2022-12-13T15:41:23.504Z,12.95
2022-12-13T15:43:55.738Z,12.60
2022-12-13T15:46:29.915Z,12.95
2022-12-13T15:49:03.484Z,13.68
2022-12-13T15:51:34.694Z,12.75
2022-12-13T15:54:21.766Z,15.40
2022-12-13T15:57:15.595Z,13.63
2022-12-13T15:59:46.041Z,13.15
2022-12-13T16:02:20.272Z,12.68
2022-12-13T16:04:52.346Z,11.60
2022-12-13T16:07:26.151Z,12.13
2022-12-13T16:09:59.939Z,12.63
2022-12-13T16:12:47.466Z,12.57
2022-12-13T16:15:20.571Z,12.82
2022-12-13T16:18:07.603Z,11.95
2022-12-13T16:20:36.840Z,12.93
2022-12-13T16:23:08.939Z,38.28
2022-12-13T16:25:39.611Z,19.23
2022-12-13T16:28:08.414Z,13.23
2022-12-13T16:31:01.974Z,12.02
2022-12-13T16:33:31.054Z,12.25
2022-12-13T16:38:33.270Z,11.65
2022-12-13T16:41:08.576Z,12.00
2022-12-13T16:43:47.700Z,12.80
2022-12-13T16:47:11.642Z,12.07
2022-12-13T16:49:18.248Z,12.55
2022-12-13T16:51:48.831Z,12.48
2022-12-13T16:54:18.949Z,11.57
2022-12-13T16:56:50.039Z,11.55
2022-12-13T16:59:20.894Z,12.43
2022-12-13T17:01:53.691Z,11.60
2022-12-13T17:04:24.720Z,11.45
2022-12-13T17:06:54.821Z,11.35
2022-12-13T17:09:25.464Z,11.57
2022-12-13T17:11:58.066Z,12.73
2022-12-13T17:14:27.145Z,11.35
2022-12-13T17:16:56.108Z,12.02
2022-12-13T17:19:25.015Z,13.57
2022-12-13T17:21:53.861Z,14.43
2022-12-13T17:24:22.747Z,13.52
2022-12-13T17:26:54.224Z,12.52
2022-12-13T17:29:25.796Z,13.15
2022-12-13T17:31:54.694Z,14.27
2022-12-13T17:34:23.554Z,14.02
2022-12-13T17:36:52.376Z,13.35
2022-12-13T17:39:21.801Z,14.50
2022-12-13T17:41:55.099Z,14.38
2022-12-13T17:44:26.838Z,14.00
2022-12-13T17:46:56.014Z,13.88
2022-12-13T17:49:25.460Z,13.52
2022-12-13T17:51:55.232Z,14.23
2022-12-13T17:54:25.582Z,14.57
2022-12-13T17:56:55.093Z,14.05
2022-12-13T17:59:27.475Z,14.70
2022-12-13T18:01:56.668Z,14.75
2022-12-13T18:04:25.574Z,15.15
2022-12-13T18:06:54.412Z,13.57
2022-12-13T18:09:25.684Z,14.30
2022-12-13T18:11:55.633Z,15.35
2022-12-13T18:14:25.016Z,16.58
2022-12-13T18:16:55.345Z,15.35
2022-12-13T18:19:30.010Z,15.88
2022-12-13T18:21:58.871Z,14.55
2022-12-13T18:24:28.023Z,49.85
2022-12-13T18:26:57.045Z,18.63
2022-12-13T18:29:25.857Z,16.17
2022-12-13T18:31:56.359Z,15.95
2022-12-13T18:34:25.887Z,16.52
2022-12-13T18:36:57.123Z,15.82
2022-12-13T18:39:28.461Z,17.30
2022-12-13T18:41:59.636Z,17.23
2022-12-13T18:44:30.608Z,17.75
2022-12-13T18:47:00.856Z,17.23
2022-12-13T18:49:29.758Z,16.63
2022-12-13T18:51:59.631Z,16.77
2022-12-13T18:54:29.710Z,18.10
2022-12-13T18:56:58.511Z,16.83
2022-12-13T18:59:27.313Z,16.85
2022-12-13T19:01:56.427Z,15.68
2022-12-13T19:04:26.941Z,15.75
2022-12-13T19:06:56.742Z,17.00
2022-12-13T19:09:25.647Z,17.63
2022-12-13T19:11:54.643Z,17.13
2022-12-13T19:14:27.264Z,17.48
2022-12-13T19:16:56.450Z,16.58
2022-12-13T19:19:26.703Z,16.80
2022-12-13T19:21:55.561Z,17.85
2022-12-13T19:24:24.524Z,17.13
2022-12-13T19:26:53.988Z,17.73
2022-12-13T19:29:25.582Z,16.70
2022-12-13T19:31:55.009Z,17.15
2022-12-13T19:34:25.313Z,16.60
2022-12-13T19:36:55.268Z,17.15
2022-12-13T19:39:25.096Z,16.85
2022-12-13T19:41:54.794Z,17.45
2022-12-13T19:44:24.033Z,16.67
2022-12-13T19:46:53.448Z,17.00
2022-12-13T19:49:22.600Z,16.63
2022-12-13T19:51:52.878Z,16.20
2022-12-13T19:54:24.846Z,16.08
2022-12-13T19:56:54.481Z,16.90
2022-12-13T19:59:23.512Z,17.17
2022-12-13T20:01:52.475Z,15.98
2022-12-13T20:04:23.706Z,16.25
2022-12-13T20:06:53.988Z,16.27
2022-12-13T20:09:22.858Z,15.52
2022-12-13T20:11:51.830Z,15.45
2022-12-13T20:14:20.621Z,16.60
2022-12-13T20:16:49.529Z,16.90
2022-12-13T20:19:20.747Z,15.45
2022-12-13T20:21:53.612Z,16.27
2022-12-13T20:24:27.115Z,15.23
2022-12-13T20:26:55.974Z,16.98
2022-12-13T20:29:25.045Z,16.48
2022-12-13T20:31:53.945Z,15.50
2022-12-13T20:34:22.835Z,15.27
2022-12-13T20:36:51.822Z,16.92
2022-12-13T20:39:23.136Z,15.68
2022-12-13T20:41:55.804Z,14.93
2022-12-13T20:44:24.621Z,16.48
2022-12-13T20:46:53.869Z,15.30
2022-12-13T20:49:22.903Z,16.05
2022-12-13T20:51:51.778Z,16.10
2022-12-13T20:54:20.611Z,16.73
2022-12-13T20:56:49.468Z,15.75
2022-12-13T20:59:19.857Z,16.85
2022-12-13T21:01:49.331Z,15.32
2022-12-13T21:04:19.304Z,15.52
2022-12-13T21:06:48.235Z,16.40
2022-12-13T21:09:17.065Z,15.82
2022-12-13T21:11:48.443Z,15.95
2022-12-13T21:14:24.721Z,15.65
2022-12-13T21:16:55.062Z,16.90
2022-12-13T21:19:26.024Z,16.25
2022-12-13T21:21:55.755Z,15.07
2022-12-13T21:24:26.587Z,15.35
2022-12-13T21:26:56.605Z,15.60
2022-12-13T21:29:26.909Z,15.52
2022-12-13T21:31:56.163Z,15.15
2022-12-13T21:34:25.351Z,15.93
2022-12-13T21:36:54.529Z,15.13
2022-12-13T21:39:27.983Z,15.23
2022-12-13T21:41:57.390Z,16.95
2022-12-13T21:44:28.481Z,16.25
2022-12-13T21:47:13.464Z,15.82
2022-12-13T21:49:48.654Z,16.48
2022-12-13T21:52:18.605Z,16.38
2022-12-13T21:54:47.426Z,16.83
2022-12-13T21:57:33.320Z,15.45
2022-12-13T22:00:06.959Z,15.25
2022-12-13T22:02:41.758Z,15.55
2022-12-13T22:05:11.350Z,16.15
2022-12-13T22:07:40.102Z,16.38
2022-12-13T22:10:09.915Z,15.75
2022-12-13T22:12:40.830Z,16.50
2022-12-13T22:15:13.235Z,16.33
2022-12-13T22:17:43.109Z,16.10
2022-12-13T22:20:13.936Z,15.93
2022-12-13T22:22:48.540Z,16.05
2022-12-13T22:25:18.819Z,16.60
2022-12-13T22:27:47.683Z,15.75
2022-12-13T22:30:17.996Z,16.38
2022-12-13T22:32:46.872Z,15.65
2022-12-13T22:35:15.849Z,15.98
2022-12-13T22:37:44.746Z,16.02
2022-12-13T22:40:17.814Z,16.20
2022-12-13T22:42:48.313Z,16.30
2022-12-13T22:45:18.805Z,16.17
2022-12-13T22:47:47.693Z,16.25
2022-12-13T22:50:16.724Z,16.95
2022-12-13T22:52:47.782Z,17.02
2022-12-13T22:55:16.794Z,17.30
2022-12-13T22:57:48.545Z,18.63
2022-12-13T23:02:25.963Z,17.33
2022-12-13T23:06:09.124Z,16.15
2022-12-13T23:08:41.839Z,17.60
2022-12-13T23:11:32.919Z,16.63
2022-12-13T23:14:02.867Z,17.25
2022-12-13T23:16:33.499Z,18.30
2022-12-13T23:19:39.644Z,18.40
2022-12-13T23:21:56.517Z,17.13
2022-12-13T23:24:24.595Z,16.65
2022-12-13T23:26:52.799Z,16.80
2022-12-13T23:29:22.959Z,16.42
2022-12-13T23:31:51.018Z,16.23
2022-12-13T23:34:19.091Z,16.92
2022-12-13T23:36:47.852Z,15.63
2022-12-13T23:39:19.666Z,16.40
2022-12-13T23:41:47.730Z,15.60
2022-12-13T23:44:18.216Z,16.90
2022-12-13T23:46:48.443Z,15.48
2022-12-13T23:49:18.049Z,12.73
2022-12-13T23:51:46.054Z,15.88
2022-12-13T23:54:17.793Z,15.35
2022-12-13T23:56:49.688Z,15.48
2022-12-13T23:59:18.032Z,15.80
